sensor_id;sensor_type;location;lat;lon;timestamp;pressure;altitude;pressure_sealevel;temperature;humidity
73516;BME280;61763;51.416;5.442;2023-12-28T00:01:12;100840.16;;;9.62;100.00
73516;BME280;61763;51.416;5.442;2023-12-28T00:03:38;100832.09;;;9.62;100.00
73516;BME280;61763;51.416;5.442;2023-12-28T00:06:06;100826.53;;;9.65;100.00
73516;BME280;61763;51.416;5.442;2023-12-28T00:08:31;100838.56;;;9.58;100.00
73516;BME280;61763;51.416;5.442;2023-12-28T00:10:58;100837.53;;;9.61;100.00
73516;BME280;61763;51.416;5.442;2023-12-28T00:13:23;100830.34;;;9.61;100.00
73516;BME280;61763;51.416;5.442;2023-12-28T00:15:48;100837.47;;;9.62;100.00
73516;BME280;61763;51.416;5.442;2023-12-28T00:18:14;100843.94;;;9.58;100.00
73516;BME280;61763;51.416;5.442;2023-12-28T00:20:39;100841.47;;;9.54;100.00
73516;BME280;61763;51.416;5.442;2023-12-28T00:23:04;100849.22;;;9.61;100.00
73516;BME280;61763;51.416;5.442;2023-12-28T00:25:31;100852.69;;;9.63;100.00
73516;BME280;61763;51.416;5.442;2023-12-28T00:27:56;100866.97;;;9.65;100.00
73516;BME280;61763;51.416;5.442;2023-12-28T00:30:22;100874.13;;;9.67;100.00
73516;BME280;61763;51.416;5.442;2023-12-28T00:32:47;100863.72;;;9.78;100.00
73516;BME280;61763;51.416;5.442;2023-12-28T00:35:13;100877.28;;;9.76;100.00
73516;BME280;61763;51.416;5.442;2023-12-28T00:37:38;100876.03;;;9.84;100.00
73516;BME280;61763;51.416;5.442;2023-12-28T00:40:04;100879.66;;;9.82;100.00
73516;BME280;61763;51.416;5.442;2023-12-28T00:42:30;100878.75;;;9.84;100.00
73516;BME280;61763;51.416;5.442;2023-12-28T00:44:55;100875.91;;;9.87;100.00
73516;BME280;61763;51.416;5.442;2023-12-28T00:47:21;100870.50;;;9.87;100.00
73516;BME280;61763;51.416;5.442;2023-12-28T00:49:46;100884.91;;;9.86;100.00
73516;BME280;61763;51.416;5.442;2023-12-28T00:52:11;100884.28;;;9.80;100.00
73516;BME280;61763;51.416;5.442;2023-12-28T00:54:37;100888.69;;;9.81;100.00
73516;BME280;61763;51.416;5.442;2023-12-28T00:57:05;100886.81;;;9.84;100.00
73516;BME280;61763;51.416;5.442;2023-12-28T00:59:31;100884.91;;;9.86;100.00
73516;BME280;61763;51.416;5.442;2023-12-28T01:01:57;100876.69;;;9.89;100.00
73516;BME280;61763;51.416;5.442;2023-12-28T01:04:22;100900.88;;;9.90;100.00
73516;BME280;61763;51.416;5.442;2023-12-28T01:06:51;100901.09;;;9.86;100.00
73516;BME280;61763;51.416;5.442;2023-12-28T01:09:17;100891.91;;;9.90;100.00
73516;BME280;61763;51.416;5.442;2023-12-28T01:11:42;100897.88;;;9.96;100.00
73516;BME280;61763;51.416;5.442;2023-12-28T01:14:08;100888.63;;;10.02;100.00
73516;BME280;61763;51.416;5.442;2023-12-28T01:16:33;100903.19;;;9.98;100.00
73516;BME280;61763;51.416;5.442;2023-12-28T01:18:58;100897.53;;;10.04;100.00
73516;BME280;61763;51.416;5.442;2023-12-28T01:21:24;100888.47;;;10.05;100.00
73516;BME280;61763;51.416;5.442;2023-12-28T01:23:54;100905.50;;;10.07;100.00
73516;BME280;61763;51.416;5.442;2023-12-28T01:26:19;100909.19;;;10.05;100.00
73516;BME280;61763;51.416;5.442;2023-12-28T01:28:45;100908.25;;;10.06;100.00
73516;BME280;61763;51.416;5.442;2023-12-28T01:31:10;100916.75;;;9.96;100.00
73516;BME280;61763;51.416;5.442;2023-12-28T01:33:36;100916.03;;;9.93;100.00
73516;BME280;61763;51.416;5.442;2023-12-28T01:36:02;100920.34;;;9.97;100.00
73516;BME280;61763;51.416;5.442;2023-12-28T01:38:27;100914.88;;;9.98;100.00
73516;BME280;61763;51.416;5.442;2023-12-28T01:40:53;100904.44;;;9.91;100.00
73516;BME280;61763;51.416;5.442;2023-12-28T01:43:19;100911.50;;;9.93;100.00
73516;BME280;61763;51.416;5.442;2023-12-28T01:45:45;100923.31;;;9.91;100.00
73516;BME280;61763;51.416;5.442;2023-12-28T01:48:11;100926.81;;;9.93;100.00
73516;BME280;61763;51.416;5.442;2023-12-28T01:50:38;100918.88;;;9.90;100.00
73516;BME280;61763;51.416;5.442;2023-12-28T01:53:04;100922.66;;;9.86;100.00
73516;BME280;61763;51.416;5.442;2023-12-28T01:55:30;100922.72;;;9.84;100.00
73516;BME280;61763;51.416;5.442;2023-12-28T01:57:56;100918.34;;;9.81;100.00
73516;BME280;61763;51.416;5.442;2023-12-28T02:00:22;100927.13;;;9.87;100.00
73516;BME280;61763;51.416;5.442;2023-12-28T02:02:48;100929.72;;;9.88;100.00
73516;BME280;61763;51.416;5.442;2023-12-28T02:05:14;100934.31;;;9.86;100.00
73516;BME280;61763;51.416;5.442;2023-12-28T02:07:39;100924.63;;;9.82;100.00
73516;BME280;61763;51.416;5.442;2023-12-28T02:10:05;100928.56;;;9.75;100.00
73516;BME280;61763;51.416;5.442;2023-12-28T02:12:31;100922.75;;;9.63;100.00
73516;BME280;61763;51.416;5.442;2023-12-28T02:14:57;100922.47;;;9.70;100.00
73516;BME280;61763;51.416;5.442;2023-12-28T02:17:31;100926.09;;;9.69;100.00
73516;BME280;61763;51.416;5.442;2023-12-28T02:19:58;100932.59;;;9.64;100.00
73516;BME280;61763;51.416;5.442;2023-12-28T02:22:25;100928.00;;;9.67;100.00
73516;BME280;61763;51.416;5.442;2023-12-28T02:27:45;100938.66;;;9.49;100.00
73516;BME280;61763;51.416;5.442;2023-12-28T02:30:13;100937.03;;;9.45;100.00
73516;BME280;61763;51.416;5.442;2023-12-28T02:35:32;100932.63;;;9.44;100.00
73516;BME280;61763;51.416;5.442;2023-12-28T02:38:02;100941.00;;;9.36;100.00
73516;BME280;61763;51.416;5.442;2023-12-28T02:40:30;100931.72;;;9.43;100.00
73516;BME280;61763;51.416;5.442;2023-12-28T02:43:00;100942.19;;;9.51;100.00
73516;BME280;61763;51.416;5.442;2023-12-28T02:45:25;100935.81;;;9.52;100.00
73516;BME280;61763;51.416;5.442;2023-12-28T02:47:52;100939.56;;;9.50;100.00
73516;BME280;61763;51.416;5.442;2023-12-28T02:50:17;100935.25;;;9.45;100.00
73516;BME280;61763;51.416;5.442;2023-12-28T02:52:42;100930.25;;;9.36;100.00
73516;BME280;61763;51.416;5.442;2023-12-28T02:55:08;100928.25;;;9.41;100.00
73516;BME280;61763;51.416;5.442;2023-12-28T02:57:33;100934.47;;;9.42;100.00
73516;BME280;61763;51.416;5.442;2023-12-28T03:00:03;100932.81;;;9.39;100.00
73516;BME280;61763;51.416;5.442;2023-12-28T03:02:29;100923.13;;;9.35;100.00
73516;BME280;61763;51.416;5.442;2023-12-28T03:04:55;100918.41;;;9.40;100.00
73516;BME280;61763;51.416;5.442;2023-12-28T03:07:20;100933.47;;;9.44;100.00
73516;BME280;61763;51.416;5.442;2023-12-28T03:09:46;100929.16;;;9.40;100.00
73516;BME280;61763;51.416;5.442;2023-12-28T03:12:11;100926.34;;;9.43;100.00
73516;BME280;61763;51.416;5.442;2023-12-28T03:14:36;100931.22;;;9.35;100.00
73516;BME280;61763;51.416;5.442;2023-12-28T03:17:02;100930.16;;;9.38;100.00
73516;BME280;61763;51.416;5.442;2023-12-28T03:19:27;100922.09;;;9.38;100.00
73516;BME280;61763;51.416;5.442;2023-12-28T03:21:53;100914.00;;;9.38;100.00
73516;BME280;61763;51.416;5.442;2023-12-28T03:24:18;100912.66;;;9.27;100.00
73516;BME280;61763;51.416;5.442;2023-12-28T03:26:43;100918.88;;;9.29;100.00
73516;BME280;61763;51.416;5.442;2023-12-28T03:29:09;100920.88;;;9.24;100.00
73516;BME280;61763;51.416;5.442;2023-12-28T03:31:39;100916.38;;;9.25;100.00
73516;BME280;61763;51.416;5.442;2023-12-28T03:34:04;100928.09;;;9.24;100.00
73516;BME280;61763;51.416;5.442;2023-12-28T03:36:29;100929.09;;;9.21;100.00
73516;BME280;61763;51.416;5.442;2023-12-28T03:38:55;100938.13;;;9.20;100.00
73516;BME280;61763;51.416;5.442;2023-12-28T03:41:20;100937.09;;;9.23;100.00
73516;BME280;61763;51.416;5.442;2023-12-28T03:43:49;100934.47;;;9.21;100.00
73516;BME280;61763;51.416;5.442;2023-12-28T03:46:14;100929.03;;;9.23;100.00
73516;BME280;61763;51.416;5.442;2023-12-28T03:48:40;100928.22;;;9.21;100.00
73516;BME280;61763;51.416;5.442;2023-12-28T03:51:05;100921.72;;;9.26;100.00
73516;BME280;61763;51.416;5.442;2023-12-28T03:53:31;100926.81;;;9.33;100.00
73516;BME280;61763;51.416;5.442;2023-12-28T03:55:58;100934.28;;;9.26;100.00
73516;BME280;61763;51.416;5.442;2023-12-28T03:58:24;100939.81;;;9.23;100.00
73516;BME280;61763;51.416;5.442;2023-12-28T04:00:49;100932.47;;;9.26;100.00
73516;BME280;61763;51.416;5.442;2023-12-28T04:03:14;100938.59;;;9.30;100.00
73516;BME280;61763;51.416;5.442;2023-12-28T04:05:40;100937.47;;;9.36;100.00
73516;BME280;61763;51.416;5.442;2023-12-28T04:08:05;100939.00;;;9.41;100.00
73516;BME280;61763;51.416;5.442;2023-12-28T04:10:32;100944.94;;;9.50;100.00
73516;BME280;61763;51.416;5.442;2023-12-28T04:12:58;100935.97;;;9.49;100.00
73516;BME280;61763;51.416;5.442;2023-12-28T04:15:25;100937.66;;;9.52;100.00
73516;BME280;61763;51.416;5.442;2023-12-28T04:17:50;100946.53;;;9.54;100.00
73516;BME280;61763;51.416;5.442;2023-12-28T04:20:15;100955.09;;;9.63;100.00
73516;BME280;61763;51.416;5.442;2023-12-28T04:22:42;100945.03;;;9.67;100.00
73516;BME280;61763;51.416;5.442;2023-12-28T04:25:11;100931.63;;;9.65;100.00
73516;BME280;61763;51.416;5.442;2023-12-28T04:27:41;100940.84;;;9.61;100.00
73516;BME280;61763;51.416;5.442;2023-12-28T04:30:07;100935.50;;;9.60;100.00
73516;BME280;61763;51.416;5.442;2023-12-28T04:32:33;100931.06;;;9.59;100.00
73516;BME280;61763;51.416;5.442;2023-12-28T04:34:58;100928.81;;;9.69;100.00
73516;BME280;61763;51.416;5.442;2023-12-28T04:37:24;100928.47;;;9.76;100.00
73516;BME280;61763;51.416;5.442;2023-12-28T04:39:51;100930.13;;;9.79;100.00
73516;BME280;61763;51.416;5.442;2023-12-28T04:42:16;100925.63;;;9.79;100.00
73516;BME280;61763;51.416;5.442;2023-12-28T04:44:41;100911.41;;;9.76;100.00
73516;BME280;61763;51.416;5.442;2023-12-28T04:47:07;100929.88;;;9.85;100.00
73516;BME280;61763;51.416;5.442;2023-12-28T04:49:32;100925.34;;;9.86;100.00
73516;BME280;61763;51.416;5.442;2023-12-28T04:51:57;100934.09;;;9.91;100.00
73516;BME280;61763;51.416;5.442;2023-12-28T04:54:25;100943.94;;;9.92;100.00
73516;BME280;61763;51.416;5.442;2023-12-28T04:56:50;100935.16;;;10.07;100.00
73516;BME280;61763;51.416;5.442;2023-12-28T04:59:16;100933.84;;;10.16;100.00
73516;BME280;61763;51.416;5.442;2023-12-28T05:01:42;100942.34;;;10.26;100.00
73516;BME280;61763;51.416;5.442;2023-12-28T05:04:08;100935.16;;;10.26;100.00
73516;BME280;61763;51.416;5.442;2023-12-28T05:06:33;100936.66;;;10.32;100.00
73516;BME280;61763;51.416;5.442;2023-12-28T05:08:58;100954.34;;;10.39;100.00
73516;BME280;61763;51.416;5.442;2023-12-28T05:11:24;100943.41;;;10.42;100.00
73516;BME280;61763;51.416;5.442;2023-12-28T05:13:49;100964.72;;;10.48;100.00
73516;BME280;61763;51.416;5.442;2023-12-28T05:16:15;100958.34;;;10.49;100.00
73516;BME280;61763;51.416;5.442;2023-12-28T05:18:40;100958.34;;;10.49;100.00
73516;BME280;61763;51.416;5.442;2023-12-28T05:21:05;100956.63;;;10.48;100.00
73516;BME280;61763;51.416;5.442;2023-12-28T05:23:31;100964.97;;;10.42;100.00
73516;BME280;61763;51.416;5.442;2023-12-28T05:25:56;100951.06;;;10.51;100.00
73516;BME280;61763;51.416;5.442;2023-12-28T05:28:22;100947.53;;;10.49;100.00
73516;BME280;61763;51.416;5.442;2023-12-28T05:30:47;100934.22;;;10.46;100.00
73516;BME280;61763;51.416;5.442;2023-12-28T05:33:12;100932.16;;;10.32;100.00
73516;BME280;61763;51.416;5.442;2023-12-28T05:35:38;100917.44;;;10.21;100.00
73516;BME280;61763;51.416;5.442;2023-12-28T05:38:03;100918.53;;;10.16;100.00
73516;BME280;61763;51.416;5.442;2023-12-28T05:40:30;100921.88;;;10.03;100.00
73516;BME280;61763;51.416;5.442;2023-12-28T05:42:55;100938.63;;;9.90;100.00
73516;BME280;61763;51.416;5.442;2023-12-28T05:45:20;100940.31;;;9.93;100.00
73516;BME280;61763;51.416;5.442;2023-12-28T05:47:46;100941.22;;;9.92;100.00
73516;BME280;61763;51.416;5.442;2023-12-28T05:50:11;100955.97;;;10.04;100.00
73516;BME280;61763;51.416;5.442;2023-12-28T05:52:37;100952.41;;;10.03;100.00
73516;BME280;61763;51.416;5.442;2023-12-28T05:55:03;100953.88;;;10.10;100.00
73516;BME280;61763;51.416;5.442;2023-12-28T05:57:29;100957.81;;;10.22;100.00
73516;BME280;61763;51.416;5.442;2023-12-28T05:59:58;100941.78;;;10.19;100.00
73516;BME280;61763;51.416;5.442;2023-12-28T06:02:24;100948.34;;;10.13;100.00
73516;BME280;61763;51.416;5.442;2023-12-28T06:04:49;100945.34;;;10.00;100.00
73516;BME280;61763;51.416;5.442;2023-12-28T06:07:15;100949.47;;;9.89;100.00
73516;BME280;61763;51.416;5.442;2023-12-28T06:09:40;100951.50;;;9.84;100.00
73516;BME280;61763;51.416;5.442;2023-12-28T06:12:06;100952.31;;;9.86;100.00
73516;BME280;61763;51.416;5.442;2023-12-28T06:14:31;100955.00;;;9.86;100.00
73516;BME280;61763;51.416;5.442;2023-12-28T06:16:57;100955.78;;;9.88;100.00
73516;BME280;61763;51.416;5.442;2023-12-28T06:19:22;100949.69;;;9.84;100.00
73516;BME280;61763;51.416;5.442;2023-12-28T06:21:48;100963.31;;;9.81;100.00
73516;BME280;61763;51.416;5.442;2023-12-28T06:24:14;100964.25;;;9.80;100.00
73516;BME280;61763;51.416;5.442;2023-12-28T06:26:43;100958.34;;;9.72;100.00
73516;BME280;61763;51.416;5.442;2023-12-28T06:29:09;100961.97;;;9.71;100.00
73516;BME280;61763;51.416;5.442;2023-12-28T06:31:35;100959.75;;;9.80;100.00
73516;BME280;61763;51.416;5.442;2023-12-28T06:34:05;100960.59;;;9.81;100.00
73516;BME280;61763;51.416;5.442;2023-12-28T06:36:31;100964.38;;;9.77;100.00
73516;BME280;61763;51.416;5.442;2023-12-28T06:38:57;100962.28;;;9.84;100.00
73516;BME280;61763;51.416;5.442;2023-12-28T06:41:22;100968.72;;;10.00;100.00
73516;BME280;61763;51.416;5.442;2023-12-28T06:43:48;100984.16;;;9.96;100.00
73516;BME280;61763;51.416;5.442;2023-12-28T06:46:13;100967.41;;;9.90;100.00
73516;BME280;61763;51.416;5.442;2023-12-28T06:48:38;100973.66;;;9.90;100.00
73516;BME280;61763;51.416;5.442;2023-12-28T06:51:06;100984.31;;;9.93;100.00
73516;BME280;61763;51.416;5.442;2023-12-28T06:53:31;100986.13;;;9.93;100.00
73516;BME280;61763;51.416;5.442;2023-12-28T06:55:57;100974.47;;;9.92;100.00
73516;BME280;61763;51.416;5.442;2023-12-28T06:58:22;100986.47;;;9.85;100.00
73516;BME280;61763;51.416;5.442;2023-12-28T07:00:47;100987.97;;;9.92;100.00
73516;BME280;61763;51.416;5.442;2023-12-28T07:03:13;100990.25;;;9.81;100.00
73516;BME280;61763;51.416;5.442;2023-12-28T07:05:38;100984.31;;;9.73;100.00
73516;BME280;61763;51.416;5.442;2023-12-28T07:08:04;100980.56;;;9.77;100.00
73516;BME280;61763;51.416;5.442;2023-12-28T07:10:29;100974.44;;;9.73;100.00
73516;BME280;61763;51.416;5.442;2023-12-28T07:12:55;100988.84;;;9.72;100.00
73516;BME280;61763;51.416;5.442;2023-12-28T07:15:20;100991.53;;;9.72;100.00
73516;BME280;61763;51.416;5.442;2023-12-28T07:17:45;101001.47;;;9.72;100.00
73516;BME280;61763;51.416;5.442;2023-12-28T07:20:11;100992.53;;;9.70;100.00
73516;BME280;61763;51.416;5.442;2023-12-28T07:22:37;100995.78;;;9.78;100.00
73516;BME280;61763;51.416;5.442;2023-12-28T07:25:06;100996.16;;;9.69;100.00
73516;BME280;61763;51.416;5.442;2023-12-28T07:27:36;100996.31;;;9.65;100.00
73516;BME280;61763;51.416;5.442;2023-12-28T07:30:05;100997.13;;;9.68;100.00
73516;BME280;61763;51.416;5.442;2023-12-28T07:32:32;100995.59;;;9.62;100.00
73516;BME280;61763;51.416;5.442;2023-12-28T07:34:57;101000.28;;;9.57;100.00
73516;BME280;61763;51.416;5.442;2023-12-28T07:37:24;101014.78;;;9.54;100.00
73516;BME280;61763;51.416;5.442;2023-12-28T07:39:49;101017.72;;;9.48;100.00
73516;BME280;61763;51.416;5.442;2023-12-28T07:42:15;101022.19;;;9.49;100.00
73516;BME280;61763;51.416;5.442;2023-12-28T07:44:40;101036.94;;;9.61;100.00
73516;BME280;61763;51.416;5.442;2023-12-28T07:47:06;101024.34;;;9.61;100.00
73516;BME280;61763;51.416;5.442;2023-12-28T07:49:31;101025.88;;;9.67;100.00
73516;BME280;61763;51.416;5.442;2023-12-28T07:51:57;101032.97;;;9.70;100.00
73516;BME280;61763;51.416;5.442;2023-12-28T07:54:22;101029.41;;;9.69;100.00
73516;BME280;61763;51.416;5.442;2023-12-28T07:56:48;101038.97;;;9.76;100.00
73516;BME280;61763;51.416;5.442;2023-12-28T07:59:13;101040.84;;;9.74;100.00
73516;BME280;61763;51.416;5.442;2023-12-28T08:01:39;101042.69;;;9.74;100.00
73516;BME280;61763;51.416;5.442;2023-12-28T08:04:04;101039.63;;;9.81;100.00
73516;BME280;61763;51.416;5.442;2023-12-28T08:06:30;101042.34;;;9.81;100.00
73516;BME280;61763;51.416;5.442;2023-12-28T08:08:59;101041.41;;;9.82;100.00
73516;BME280;61763;51.416;5.442;2023-12-28T08:11:26;101043.97;;;9.86;100.00
73516;BME280;61763;51.416;5.442;2023-12-28T08:13:52;101051.25;;;9.84;100.00
73516;BME280;61763;51.416;5.442;2023-12-28T08:16:17;101051.38;;;9.80;100.00
73516;BME280;61763;51.416;5.442;2023-12-28T08:18:43;101048.88;;;9.76;100.00
73516;BME280;61763;51.416;5.442;2023-12-28T08:21:08;101041.88;;;9.72;100.00
73516;BME280;61763;51.416;5.442;2023-12-28T08:23:33;101054.00;;;9.82;100.00
73516;BME280;61763;51.416;5.442;2023-12-28T08:25:59;101051.91;;;9.89;100.00
73516;BME280;61763;51.416;5.442;2023-12-28T08:28:24;101035.88;;;9.86;100.00
73516;BME280;61763;51.416;5.442;2023-12-28T08:30:50;101031.63;;;9.80;100.00
73516;BME280;61763;51.416;5.442;2023-12-28T08:33:16;101027.50;;;9.92;100.00
73516;BME280;61763;51.416;5.442;2023-12-28T08:35:41;101048.63;;;10.03;100.00
73516;BME280;61763;51.416;5.442;2023-12-28T08:38:07;101047.66;;;10.04;100.00
73516;BME280;61763;51.416;5.442;2023-12-28T08:40:32;101054.78;;;10.05;100.00
73516;BME280;61763;51.416;5.442;2023-12-28T08:42:58;101053.88;;;10.06;100.00
73516;BME280;61763;51.416;5.442;2023-12-28T08:45:23;101050.81;;;10.13;100.00
73516;BME280;61763;51.416;5.442;2023-12-28T08:47:49;101062.00;;;10.25;100.00
73516;BME280;61763;51.416;5.442;2023-12-28T08:50:14;101053.75;;;10.28;100.00
73516;BME280;61763;51.416;5.442;2023-12-28T08:52:40;101067.19;;;10.29;100.00
73516;BME280;61763;51.416;5.442;2023-12-28T08:55:06;101060.66;;;10.35;100.00
73516;BME280;61763;51.416;5.442;2023-12-28T08:57:31;101053.44;;;10.36;100.00
73516;BME280;61763;51.416;5.442;2023-12-28T08:59:57;101074.94;;;10.37;100.00
73516;BME280;61763;51.416;5.442;2023-12-28T09:02:22;101061.25;;;10.42;100.00
73516;BME280;61763;51.416;5.442;2023-12-28T09:04:48;101078.38;;;10.41;100.00
73516;BME280;61763;51.416;5.442;2023-12-28T09:07:14;101095.25;;;10.46;100.00
73516;BME280;61763;51.416;5.442;2023-12-28T09:09:39;101088.44;;;10.37;100.00
73516;BME280;61763;51.416;5.442;2023-12-28T09:12:05;101094.94;;;10.31;100.00
73516;BME280;61763;51.416;5.442;2023-12-28T09:14:30;101072.97;;;10.41;100.00
73516;BME280;61763;51.416;5.442;2023-12-28T09:16:56;101101.78;;;10.40;100.00
73516;BME280;61763;51.416;5.442;2023-12-28T09:19:22;101111.66;;;10.41;100.00
73516;BME280;61763;51.416;5.442;2023-12-28T09:21:48;101109.94;;;10.39;100.00
73516;BME280;61763;51.416;5.442;2023-12-28T09:24:13;101113.59;;;10.38;100.00
73516;BME280;61763;51.416;5.442;2023-12-28T09:26:41;101116.28;;;10.38;100.00
73516;BME280;61763;51.416;5.442;2023-12-28T09:29:06;101112.06;;;10.30;100.00
73516;BME280;61763;51.416;5.442;2023-12-28T09:31:31;101105.41;;;10.39;100.00
73516;BME280;61763;51.416;5.442;2023-12-28T09:33:57;101124.22;;;10.41;100.00
73516;BME280;61763;51.416;5.442;2023-12-28T09:36:22;101100.91;;;10.40;100.00
73516;BME280;61763;51.416;5.442;2023-12-28T09:38:48;101123.22;;;10.43;100.00
73516;BME280;61763;51.416;5.442;2023-12-28T09:41:15;101108.19;;;10.38;100.00
73516;BME280;61763;51.416;5.442;2023-12-28T09:43:54;101120.16;;;10.30;100.00
73516;BME280;61763;51.416;5.442;2023-12-28T09:46:23;101117.31;;;10.35;100.00
73516;BME280;61763;51.416;5.442;2023-12-28T09:48:49;101130.94;;;10.30;100.00
73516;BME280;61763;51.416;5.442;2023-12-28T09:51:15;101130.81;;;10.35;100.00
73516;BME280;61763;51.416;5.442;2023-12-28T09:53:42;101121.06;;;10.31;100.00
73516;BME280;61763;51.416;5.442;2023-12-28T09:56:08;101130.88;;;10.32;100.00
73516;BME280;61763;51.416;5.442;2023-12-28T09:58:35;101138.00;;;10.34;100.00
73516;BME280;61763;51.416;5.442;2023-12-28T10:01:02;101134.63;;;10.29;100.00
73516;BME280;61763;51.416;5.442;2023-12-28T10:03:28;101137.53;;;10.25;100.00
73516;BME280;61763;51.416;5.442;2023-12-28T10:05:53;101134.94;;;10.22;100.00
73516;BME280;61763;51.416;5.442;2023-12-28T10:08:19;101135.91;;;10.21;100.00
73516;BME280;61763;51.416;5.442;2023-12-28T10:10:44;101148.31;;;10.25;100.00
73516;BME280;61763;51.416;5.442;2023-12-28T10:13:16;101138.47;;;10.24;100.00
73516;BME280;61763;51.416;5.442;2023-12-28T10:15:42;101140.09;;;10.28;100.00
73516;BME280;61763;51.416;5.442;2023-12-28T10:18:08;101135.16;;;10.38;100.00
73516;BME280;61763;51.416;5.442;2023-12-28T10:20:34;101144.94;;;10.40;100.00
73516;BME280;61763;51.416;5.442;2023-12-28T10:22:59;101145.09;;;10.37;100.00
73516;BME280;61763;51.416;5.442;2023-12-28T10:25:26;101143.66;;;10.49;100.00
73516;BME280;61763;51.416;5.442;2023-12-28T10:27:53;101140.59;;;10.57;100.00
73516;BME280;61763;51.416;5.442;2023-12-28T10:30:20;101141.84;;;10.49;100.00
73516;BME280;61763;51.416;5.442;2023-12-28T10:32:46;101125.19;;;10.40;100.00
73516;BME280;61763;51.416;5.442;2023-12-28T10:35:11;101126.25;;;10.56;100.00
73516;BME280;61763;51.416;5.442;2023-12-28T10:37:39;101133.47;;;10.56;100.00
73516;BME280;61763;51.416;5.442;2023-12-28T10:40:07;101129.09;;;10.53;100.00
73516;BME280;61763;51.416;5.442;2023-12-28T10:42:52;101127.94;;;10.59;100.00
73516;BME280;61763;51.416;5.442;2023-12-28T10:45:19;101123.34;;;10.61;100.00
73516;BME280;61763;51.416;5.442;2023-12-28T10:50:26;101113.66;;;10.76;100.00
73516;BME280;61763;51.416;5.442;2023-12-28T10:52:56;101136.72;;;10.83;100.00
73516;BME280;61763;51.416;5.442;2023-12-28T10:55:34;101125.75;;;10.86;100.00
73516;BME280;61763;51.416;5.442;2023-12-28T10:58:12;101125.28;;;10.78;100.00
73516;BME280;61763;51.416;5.442;2023-12-28T11:00:44;101117.88;;;10.81;100.00
73516;BME280;61763;51.416;5.442;2023-12-28T11:03:15;101103.31;;;10.85;100.00
73516;BME280;61763;51.416;5.442;2023-12-28T11:05:43;101121.44;;;10.82;100.00
73516;BME280;61763;51.416;5.442;2023-12-28T11:08:11;101122.34;;;10.82;100.00
73516;BME280;61763;51.416;5.442;2023-12-28T11:10:38;101121.38;;;10.83;100.00
73516;BME280;61763;51.416;5.442;2023-12-28T11:13:05;101100.06;;;10.77;100.00
73516;BME280;61763;51.416;5.442;2023-12-28T11:15:30;101117.88;;;10.81;100.00
73516;BME280;61763;51.416;5.442;2023-12-28T11:17:56;101109.16;;;10.76;100.00
73516;BME280;61763;51.416;5.442;2023-12-28T11:20:22;101114.41;;;10.79;100.00
73516;BME280;61763;51.416;5.442;2023-12-28T11:22:48;101110.25;;;10.91;100.00
73516;BME280;61763;51.416;5.442;2023-12-28T11:25:15;101107.75;;;10.86;100.00
73516;BME280;61763;51.416;5.442;2023-12-28T11:27:41;101110.81;;;10.98;100.00
73516;BME280;61763;51.416;5.442;2023-12-28T11:30:07;101109.88;;;10.99;100.00
73516;BME280;61763;51.416;5.442;2023-12-28T11:32:40;101110.50;;;11.04;100.00
73516;BME280;61763;51.416;5.442;2023-12-28T11:35:07;101100.22;;;10.93;100.00
73516;BME280;61763;51.416;5.442;2023-12-28T11:37:37;101095.75;;;10.92;100.00
73516;BME280;61763;51.416;5.442;2023-12-28T11:40:12;101088.78;;;10.88;100.00
73516;BME280;61763;51.416;5.442;2023-12-28T11:42:50;101093.00;;;10.94;100.00
73516;BME280;61763;51.416;5.442;2023-12-28T11:45:20;101091.56;;;10.86;100.00
73516;BME280;61763;51.416;5.442;2023-12-28T11:47:45;101077.16;;;10.86;100.00
73516;BME280;61763;51.416;5.442;2023-12-28T11:50:11;101075.22;;;10.90;100.00
73516;BME280;61763;51.416;5.442;2023-12-28T11:52:38;101085.63;;;10.97;100.00
73516;BME280;61763;51.416;5.442;2023-12-28T11:55:03;101069.50;;;10.96;100.00
73516;BME280;61763;51.416;5.442;2023-12-28T11:57:30;101064.81;;;10.99;100.00
73516;BME280;61763;51.416;5.442;2023-12-28T11:59:59;101050.75;;;10.93;100.00
73516;BME280;61763;51.416;5.442;2023-12-28T12:02:25;101068.59;;;10.95;100.00
73516;BME280;61763;51.416;5.442;2023-12-28T12:04:51;101054.53;;;10.89;100.00
73516;BME280;61763;51.416;5.442;2023-12-28T12:07:16;101076.22;;;10.87;100.00
73516;BME280;61763;51.416;5.442;2023-12-28T12:09:42;101074.63;;;10.83;100.00
73516;BME280;61763;51.416;5.442;2023-12-28T12:12:08;101070.22;;;10.80;100.00
73516;BME280;61763;51.416;5.442;2023-12-28T12:14:34;101071.91;;;10.83;100.00
73516;BME280;61763;51.416;5.442;2023-12-28T12:17:00;101053.69;;;10.88;100.00
73516;BME280;61763;51.416;5.442;2023-12-28T12:19:26;101050.09;;;10.87;100.00
73516;BME280;61763;51.416;5.442;2023-12-28T12:21:52;101042.72;;;10.91;100.00
73516;BME280;61763;51.416;5.442;2023-12-28T12:24:18;101054.31;;;10.93;100.00
73516;BME280;61763;51.416;5.442;2023-12-28T12:26:45;101047.00;;;10.95;100.00
73516;BME280;61763;51.416;5.442;2023-12-28T12:29:11;101046.38;;;10.90;100.00
73516;BME280;61763;51.416;5.442;2023-12-28T12:31:37;101039.22;;;10.89;100.00
73516;BME280;61763;51.416;5.442;2023-12-28T12:34:07;101034.47;;;10.94;100.00
73516;BME280;61763;51.416;5.442;2023-12-28T12:36:32;101033.75;;;10.91;100.00
73516;BME280;61763;51.416;5.442;2023-12-28T12:38:58;101034.63;;;10.91;100.00
73516;BME280;61763;51.416;5.442;2023-12-28T12:41:23;101032.00;;;10.90;100.00
73516;BME280;61763;51.416;5.442;2023-12-28T12:43:48;101032.72;;;10.93;100.00
73516;BME280;61763;51.416;5.442;2023-12-28T12:46:14;101040.03;;;10.91;100.00
73516;BME280;61763;51.416;5.442;2023-12-28T12:48:39;101030.41;;;10.85;100.00